createdAt,value
2023-05-01T00:00:55.157Z,9.00
2023-05-01T00:03:23.023Z,8.96
2023-05-01T00:05:50.254Z,8.97
2023-05-01T00:08:17.491Z,8.99
2023-05-01T00:10:44.865Z,9.00
2023-05-01T00:13:12.344Z,8.99
2023-05-01T00:15:40.895Z,8.99
2023-05-01T00:18:08.533Z,9.02
2023-05-01T00:20:35.910Z,9.05
2023-05-01T00:23:03.220Z,9.09
2023-05-01T00:25:31.643Z,9.14
2023-05-01T00:28:00.132Z,9.19
2023-05-01T00:30:28.298Z,9.20
2023-05-01T00:32:56.137Z,9.20
2023-05-01T00:35:23.715Z,9.23
2023-05-01T00:37:51.288Z,9.24
2023-05-01T00:40:18.742Z,9.24
2023-05-01T00:42:46.201Z,9.20
2023-05-01T00:45:14.694Z,9.17
2023-05-01T00:47:42.267Z,9.13
2023-05-01T00:50:09.898Z,9.08
2023-05-01T00:52:37.558Z,9.05
2023-05-01T00:55:05.519Z,9.04
2023-05-01T00:57:32.986Z,9.05
2023-05-01T01:00:00.670Z,9.05
2023-05-01T01:02:28.074Z,9.04
2023-05-01T01:04:55.869Z,9.03
2023-05-01T01:07:25.347Z,9.02
2023-05-01T01:09:56.317Z,9.02
2023-05-01T01:12:27.773Z,9.05
2023-05-01T01:15:27.472Z,9.07
2023-05-01T01:17:58.083Z,9.10
2023-05-01T01:20:39.353Z,9.11
2023-05-01T01:23:14.319Z,9.12
2023-05-01T01:25:57.318Z,9.12
2023-05-01T01:28:27.868Z,9.13
2023-05-01T01:31:04.893Z,9.13
2023-05-01T01:33:41.824Z,9.12
2023-05-01T01:36:12.026Z,9.11
2023-05-01T01:38:58.552Z,9.09
2023-05-01T01:41:32.252Z,9.08
2023-05-01T01:44:21.392Z,9.04
2023-05-01T01:46:49.700Z,8.97
2023-05-01T01:49:22.182Z,8.89
2023-05-01T01:51:50.371Z,8.82
2023-05-01T01:54:19.773Z,8.80
2023-05-01T01:56:47.821Z,8.79
2023-05-01T01:59:15.237Z,8.80
2023-05-01T02:01:42.847Z,8.80
2023-05-01T02:04:10.289Z,8.77
2023-05-01T02:06:38.405Z,8.73
2023-05-01T02:09:06.843Z,8.71
2023-05-01T02:11:34.307Z,8.70
2023-05-01T02:14:02.350Z,8.69
2023-05-01T02:16:29.860Z,8.70
2023-05-01T02:18:57.484Z,8.71
2023-05-01T02:21:25.266Z,8.67
2023-05-01T02:23:53.012Z,8.64
2023-05-01T02:26:20.673Z,8.61
2023-05-01T02:28:48.039Z,8.58
2023-05-01T02:31:15.431Z,8.56
2023-05-01T02:33:42.946Z,8.57
2023-05-01T02:36:10.506Z,8.58
2023-05-01T02:38:38.472Z,8.57
2023-05-01T02:41:06.218Z,8.55
2023-05-01T02:43:34.202Z,8.54
2023-05-01T02:46:02.289Z,8.55
2023-05-01T02:48:30.036Z,8.55
2023-05-01T02:50:57.798Z,8.56
2023-05-01T02:53:25.364Z,8.56
2023-05-01T02:55:57.072Z,8.55
2023-05-01T02:58:24.983Z,8.54
2023-05-01T03:00:52.888Z,8.55
2023-05-01T03:03:20.432Z,8.54
2023-05-01T03:05:48.217Z,8.57
2023-05-01T03:08:15.938Z,8.59
2023-05-01T03:10:43.909Z,8.59
2023-05-01T03:13:11.993Z,8.62
2023-05-01T03:15:39.578Z,8.64
2023-05-01T03:18:07.341Z,8.66
2023-05-01T03:20:34.815Z,8.70
2023-05-01T03:23:02.642Z,8.72
2023-05-01T03:25:30.382Z,8.73
2023-05-01T03:27:58.044Z,8.72
2023-05-01T03:30:25.806Z,8.74
2023-05-01T03:32:54.865Z,8.77
2023-05-01T03:35:26.188Z,8.81
2023-05-01T03:37:53.932Z,8.88
2023-05-01T03:40:57.922Z,8.92
2023-05-01T03:43:43.942Z,8.93
2023-05-01T03:46:41.201Z,8.98
2023-05-01T03:49:11.199Z,9.01
2023-05-01T03:51:43.881Z,8.99
2023-05-01T03:54:11.318Z,8.96
2023-05-01T03:57:06.676Z,8.94
2023-05-01T03:59:34.089Z,8.98
2023-05-01T04:02:01.738Z,9.00
2023-05-01T04:04:30.430Z,9.00
2023-05-01T04:06:58.710Z,9.04
2023-05-01T04:09:27.474Z,9.10
2023-05-01T04:11:55.045Z,9.12
2023-05-01T04:55:22.784Z,9.02
2023-05-01T04:58:05.012Z,9.04
2023-05-01T05:09:45.100Z,9.27
2023-05-01T05:16:50.111Z,9.32
2023-05-01T05:19:17.828Z,9.28
2023-05-01T05:22:13.859Z,9.23
2023-05-01T05:25:11.865Z,9.23
2023-05-01T05:27:39.382Z,9.29
2023-05-01T05:30:07.452Z,9.36
2023-05-01T05:32:35.616Z,9.41
2023-05-01T05:35:03.899Z,9.52
2023-05-01T05:37:31.255Z,9.70
2023-05-01T05:39:58.737Z,9.84
2023-05-01T05:42:27.090Z,9.97
2023-05-01T05:44:54.569Z,10.03
2023-05-01T05:47:22.217Z,10.03
2023-05-01T05:49:49.977Z,10.01
2023-05-01T05:52:17.843Z,10.05
2023-05-01T05:54:45.195Z,10.09
2023-05-01T05:57:12.668Z,10.10
2023-05-01T05:59:44.741Z,10.06
2023-05-01T06:02:13.091Z,10.07
2023-05-01T06:04:40.653Z,10.07
2023-05-01T06:07:08.335Z,10.06
2023-05-01T06:09:36.804Z,10.07
2023-05-01T06:12:06.121Z,10.11
2023-05-01T06:14:34.164Z,10.15
2023-05-01T06:17:01.789Z,10.19
2023-05-01T06:19:29.630Z,10.19
2023-05-01T06:22:05.124Z,10.19
2023-05-01T06:24:33.825Z,10.16
2023-05-01T06:27:01.750Z,10.14
2023-05-01T06:29:29.451Z,10.10
2023-05-01T06:31:56.984Z,10.09
2023-05-01T06:34:24.673Z,10.12
2023-05-01T06:36:53.895Z,10.13
2023-05-01T06:39:21.425Z,10.12
2023-05-01T06:41:48.730Z,10.16
2023-05-01T06:44:16.552Z,10.20
2023-05-01T06:46:44.246Z,10.20
2023-05-01T06:49:13.810Z,10.19
2023-05-01T06:51:41.270Z,10.23
2023-05-01T06:54:08.982Z,10.29
2023-05-01T06:56:36.286Z,10.27
2023-05-01T06:59:04.046Z,10.21
2023-05-01T07:01:33.905Z,10.13
2023-05-01T07:04:04.187Z,10.05
2023-05-01T07:06:32.898Z,9.99
2023-05-01T07:09:00.325Z,9.99
2023-05-01T07:11:27.727Z,10.03
2023-05-01T07:13:55.138Z,10.04
2023-05-01T07:16:22.668Z,10.05
2023-05-01T07:18:50.261Z,10.10
2023-05-01T07:21:17.610Z,10.13
2023-05-01T07:23:45.174Z,10.17
2023-05-01T07:26:12.428Z,10.22
2023-05-01T07:28:39.988Z,10.28
2023-05-01T07:31:07.747Z,10.31
2023-05-01T07:33:36.328Z,10.29
2023-05-01T07:36:05.167Z,10.30
2023-05-01T07:38:32.061Z,10.26
2023-05-01T07:40:59.119Z,10.24
2023-05-01T07:43:26.270Z,10.21
2023-05-01T07:45:55.596Z,10.18
2023-05-01T07:48:22.906Z,10.14
2023-05-01T07:50:50.550Z,10.11
2023-05-01T07:53:17.819Z,10.07
2023-05-01T07:55:45.380Z,10.05
2023-05-01T07:58:12.673Z,10.02
2023-05-01T08:00:40.192Z,9.98
2023-05-01T08:03:07.767Z,9.99
2023-05-01T08:05:35.576Z,9.98
2023-05-01T08:08:03.070Z,10.00
2023-05-01T08:10:30.539Z,10.03
2023-05-01T08:12:57.986Z,10.08
2023-05-01T08:15:25.356Z,10.14
2023-05-01T08:17:52.983Z,10.21
2023-05-01T08:20:20.267Z,10.33
2023-05-01T08:22:48.657Z,10.41
2023-05-01T08:25:15.587Z,10.50
2023-05-01T08:27:43.246Z,10.52
2023-05-01T08:30:11.213Z,10.46
2023-05-01T08:32:38.700Z,10.37
2023-05-01T08:35:06.806Z,10.32
2023-05-01T08:37:33.995Z,10.32
2023-05-01T08:40:04.005Z,10.32
2023-05-01T08:42:32.331Z,10.35
2023-05-01T08:45:00.077Z,10.43
2023-05-01T08:47:27.545Z,10.50
2023-05-01T08:49:55.088Z,10.57
2023-05-01T08:52:22.512Z,10.65
2023-05-01T08:54:49.951Z,10.74
2023-05-01T08:57:17.335Z,10.84
2023-05-01T08:59:44.879Z,10.98
2023-05-01T09:02:12.402Z,11.08
2023-05-01T09:04:40.618Z,11.15
2023-05-01T09:07:08.797Z,11.18
2023-05-01T09:09:36.446Z,11.18
2023-05-01T09:12:09.746Z,11.14
2023-05-01T09:14:37.710Z,11.14
2023-05-01T09:17:05.061Z,11.19
2023-05-01T09:19:32.752Z,11.30
2023-05-01T09:22:00.186Z,11.44
2023-05-01T09:24:27.962Z,11.60
2023-05-01T09:26:55.421Z,11.77
2023-05-01T09:29:42.124Z,11.96
2023-05-01T09:32:23.660Z,12.11
2023-05-01T09:34:51.256Z,12.21
2023-05-01T09:37:30.696Z,12.22
2023-05-01T09:40:01.734Z,12.30
2023-05-01T09:42:30.016Z,12.40
2023-05-01T09:44:57.350Z,12.49
2023-05-01T09:47:24.952Z,12.58
2023-05-01T09:49:52.584Z,12.69
2023-05-01T09:52:20.147Z,12.86
2023-05-01T09:54:47.810Z,13.02
2023-05-01T09:57:15.367Z,13.19
2023-05-01T09:59:42.745Z,13.32
2023-05-01T10:02:20.087Z,13.46
2023-05-01T10:04:47.467Z,13.56
2023-05-01T10:07:15.051Z,13.65
2023-05-01T10:09:42.736Z,13.71
2023-05-01T10:12:10.606Z,13.77
2023-05-01T10:14:51.783Z,13.81
2023-05-01T10:17:21.377Z,13.78
2023-05-01T10:19:49.249Z,13.69
2023-05-01T10:22:16.763Z,13.58
2023-05-01T10:24:46.571Z,13.51
2023-05-01T10:27:14.766Z,13.45
2023-05-01T10:29:42.817Z,13.39
2023-05-01T10:32:10.193Z,13.36
2023-05-01T10:34:39.863Z,13.38
2023-05-01T10:37:26.894Z,13.39
2023-05-01T10:39:54.355Z,13.29
2023-05-01T10:42:22.116Z,13.23
2023-05-01T10:44:49.990Z,13.20
2023-05-01T10:47:31.740Z,13.18
2023-05-01T10:50:09.270Z,13.20
2023-05-01T10:52:57.022Z,13.22
2023-05-01T10:55:37.455Z,13.23
2023-05-01T10:58:05.540Z,13.23
2023-05-01T11:00:34.603Z,13.28
2023-05-01T11:03:23.090Z,13.35
2023-05-01T11:06:02.590Z,13.42
2023-05-01T11:08:31.113Z,13.48
2023-05-01T11:10:59.854Z,13.54
2023-05-01T11:13:57.853Z,13.63
2023-05-01T11:16:35.604Z,13.77
2023-05-01T11:19:06.899Z,13.84
2023-05-01T11:21:35.241Z,13.89
2023-05-01T11:24:06.457Z,13.96
2023-05-01T11:26:37.873Z,14.03
2023-05-01T11:29:05.228Z,14.13
2023-05-01T11:31:33.032Z,14.30
2023-05-01T11:34:00.995Z,14.57
2023-05-01T11:36:30.242Z,15.00
2023-05-01T11:39:00.134Z,15.46
2023-05-01T11:41:28.242Z,15.82
2023-05-01T11:43:57.236Z,16.06
2023-05-01T11:46:31.487Z,16.24
2023-05-01T11:49:01.753Z,16.33
2023-05-01T11:51:29.991Z,16.37
2023-05-01T11:54:29.656Z,16.29
2023-05-01T11:57:03.870Z,16.16
2023-05-01T11:59:31.331Z,16.10
2023-05-01T12:01:59.654Z,16.11
2023-05-01T12:04:31.607Z,16.23
2023-05-01T12:07:01.521Z,16.43
2023-05-01T12:09:30.076Z,16.77
2023-05-01T12:11:58.667Z,17.28
2023-05-01T12:14:26.337Z,17.87
2023-05-01T12:16:54.237Z,18.21
2023-05-01T12:19:23.934Z,18.38
2023-05-01T12:22:12.963Z,18.58
2023-05-01T12:24:48.783Z,18.94
2023-05-01T12:27:16.365Z,19.29
2023-05-01T12:29:47.607Z,19.44
2023-05-01T12:32:15.690Z,19.31
2023-05-01T12:34:43.550Z,19.04
2023-05-01T12:37:11.419Z,18.84
2023-05-01T12:39:39.599Z,18.79
2023-05-01T12:42:17.597Z,18.84
2023-05-01T12:44:45.485Z,18.98
2023-05-01T12:47:13.014Z,19.22
2023-05-01T12:49:41.082Z,19.46
2023-05-01T12:52:09.517Z,19.64
2023-05-01T12:54:40.948Z,19.71
2023-05-01T12:57:11.496Z,19.71
2023-05-01T12:59:39.722Z,19.63
2023-05-01T13:02:08.063Z,19.68
2023-05-01T13:04:35.842Z,19.71
2023-05-01T13:07:05.458Z,19.59
2023-05-01T13:09:32.922Z,19.37
2023-05-01T13:12:02.773Z,19.14
2023-05-01T13:14:31.107Z,18.97
2023-05-01T13:16:58.609Z,18.85
2023-05-01T13:19:29.108Z,18.75
2023-05-01T13:21:57.681Z,18.66
2023-05-01T13:24:25.522Z,18.61
2023-05-01T13:27:04.837Z,18.59
2023-05-01T13:29:32.824Z,18.62
2023-05-01T13:32:00.710Z,18.67
2023-05-01T13:34:32.074Z,18.74
2023-05-01T13:37:00.134Z,18.77
2023-05-01T13:39:27.786Z,18.79
2023-05-01T13:41:55.263Z,18.79
2023-05-01T13:44:22.808Z,18.77
2023-05-01T13:46:50.776Z,18.82
2023-05-01T13:49:18.234Z,18.97
2023-05-01T13:51:47.017Z,19.23
2023-05-01T13:54:15.503Z,19.74
2023-05-01T13:56:43.403Z,20.37
2023-05-01T13:59:11.132Z,20.87
2023-05-01T14:01:41.777Z,21.37
2023-05-01T14:04:11.010Z,21.78
2023-05-01T14:06:42.479Z,22.25
2023-05-01T14:09:10.913Z,22.81
2023-05-01T14:11:47.257Z,23.35
2023-05-01T14:14:17.476Z,23.91
2023-05-01T14:16:51.881Z,24.20
2023-05-01T14:19:19.560Z,24.36
2023-05-01T14:21:47.321Z,24.32
2023-05-01T14:24:16.335Z,24.28
2023-05-01T14:26:43.856Z,24.10
2023-05-01T14:29:22.078Z,23.66
2023-05-01T14:31:49.491Z,23.16
2023-05-01T14:34:17.941Z,22.98
2023-05-01T14:36:45.492Z,22.97
2023-05-01T14:39:13.753Z,23.12
2023-05-01T14:41:40.996Z,23.06
2023-05-01T14:44:14.803Z,22.68
2023-05-01T14:46:47.489Z,22.11
2023-05-01T14:49:18.465Z,21.48
2023-05-01T14:51:45.882Z,20.85
2023-05-01T14:54:14.083Z,20.40
2023-05-01T14:56:42.538Z,20.00
2023-05-01T14:59:09.811Z,19.66
2023-05-01T15:01:37.708Z,19.39
2023-05-01T15:04:07.878Z,19.20
2023-05-01T15:06:35.612Z,18.99
2023-05-01T15:09:04.948Z,18.76
2023-05-01T15:11:32.822Z,18.47
2023-05-01T15:14:00.419Z,18.19
2023-05-01T15:16:28.253Z,17.96
2023-05-01T15:18:56.002Z,17.76
2023-05-01T15:21:23.989Z,17.56
2023-05-01T15:23:52.455Z,17.40
2023-05-01T15:26:20.340Z,17.28
2023-05-01T15:28:48.600Z,17.21
2023-05-01T15:31:16.019Z,17.21
2023-05-01T15:33:45.353Z,17.25
2023-05-01T15:36:13.624Z,17.24
2023-05-01T15:38:41.185Z,17.21
2023-05-01T15:41:08.748Z,17.14
2023-05-01T15:43:36.888Z,17.07
2023-05-01T15:46:06.198Z,17.02
2023-05-01T15:48:34.037Z,17.04
2023-05-01T15:51:01.556Z,16.95
2023-05-01T15:53:29.342Z,16.77
2023-05-01T15:55:58.364Z,16.59
2023-05-01T15:58:27.603Z,16.41
2023-05-01T16:00:55.149Z,16.25
2023-05-01T16:03:23.020Z,16.08
2023-05-01T16:05:51.296Z,15.83
2023-05-01T16:08:19.779Z,15.60
2023-05-01T16:10:47.747Z,15.42
2023-05-01T16:13:15.796Z,15.23
2023-05-01T16:19:20.978Z,14.77
2023-05-01T16:21:50.513Z,14.56
2023-05-01T16:24:20.122Z,14.41
2023-05-01T16:26:47.750Z,14.29
2023-05-01T16:29:15.155Z,14.19
2023-05-01T16:31:47.687Z,14.06
2023-05-01T16:34:15.855Z,13.91
2023-05-01T16:36:43.927Z,13.82
2023-05-01T16:39:12.234Z,13.76
2023-05-01T16:41:46.956Z,13.68
2023-05-01T16:44:14.690Z,13.59
2023-05-01T16:46:43.384Z,13.51
2023-05-01T16:49:11.205Z,13.44
2023-05-01T16:51:38.906Z,13.35
2023-05-01T16:54:06.873Z,13.26
2023-05-01T16:56:34.182Z,13.23
2023-05-01T16:59:01.890Z,13.21
2023-05-01T17:01:30.600Z,13.14
2023-05-01T17:03:57.467Z,13.10
2023-05-01T17:06:24.753Z,13.07
2023-05-01T17:08:52.225Z,12.99
2023-05-01T17:11:19.652Z,12.92
2023-05-01T17:13:46.941Z,12.90
2023-05-01T17:16:14.261Z,12.87
2023-05-01T17:18:41.604Z,12.78
2023-05-01T17:21:10.044Z,12.73
2023-05-01T17:23:37.582Z,12.66
2023-05-01T17:26:05.698Z,12.58
2023-05-01T17:28:33.630Z,12.52
2023-05-01T17:31:00.593Z,12.48
2023-05-01T17:33:29.681Z,12.44
2023-05-01T17:35:59.982Z,12.40
2023-05-01T17:38:27.418Z,12.35
2023-05-01T17:40:55.015Z,12.34
2023-05-01T17:43:22.359Z,12.34
2023-05-01T17:45:50.386Z,12.31
2023-05-01T17:48:19.848Z,12.27
2023-05-01T17:50:47.603Z,12.23
2023-05-01T17:53:15.907Z,12.16
2023-05-01T17:55:42.818Z,12.12
2023-05-01T17:58:09.798Z,12.10
2023-05-01T18:00:37.136Z,12.06
2023-05-01T18:03:05.181Z,12.06
2023-05-01T18:05:32.644Z,12.08
2023-05-01T18:08:00.132Z,12.11
2023-05-01T18:10:31.354Z,12.10
2023-05-01T18:12:58.998Z,12.09
2023-05-01T18:15:26.660Z,12.09
2023-05-01T18:17:55.498Z,12.12
2023-05-01T18:20:23.027Z,12.16
2023-05-01T18:22:50.710Z,12.22
2023-05-01T18:25:17.674Z,12.26
2023-05-01T18:27:45.395Z,12.30
2023-05-01T18:30:13.244Z,12.29
2023-05-01T18:32:48.087Z,12.26
2023-05-01T18:35:17.182Z,12.25
2023-05-01T18:37:44.750Z,12.24
2023-05-01T18:40:13.009Z,12.24
2023-05-01T18:42:41.487Z,12.23
2023-05-01T18:45:10.412Z,12.23
2023-05-01T18:47:38.196Z,12.23
2023-05-01T18:50:06.352Z,12.25
2023-05-01T18:52:33.809Z,12.28
2023-05-01T18:55:01.028Z,12.31
2023-05-01T18:57:29.030Z,12.35
2023-05-01T18:59:56.510Z,12.37
2023-05-01T19:02:24.132Z,12.39
2023-05-01T19:04:57.356Z,12.40
2023-05-01T19:07:28.046Z,12.38
2023-05-01T19:09:55.544Z,12.36
2023-05-01T19:12:23.455Z,12.34
2023-05-01T19:14:51.322Z,12.32
2023-05-01T19:17:19.091Z,12.31
2023-05-01T19:19:46.855Z,12.32
2023-05-01T19:22:14.189Z,12.29
2023-05-01T19:24:41.560Z,12.26
2023-05-01T19:27:10.550Z,12.24
2023-05-01T19:29:39.997Z,12.20
2023-05-01T19:32:07.562Z,12.18
2023-05-01T19:34:35.371Z,12.19
2023-05-01T19:37:02.860Z,12.16
2023-05-01T19:39:30.722Z,12.14
2023-05-01T19:41:58.771Z,12.11
2023-05-01T19:44:27.197Z,12.07
2023-05-01T19:47:14.982Z,12.03
2023-05-01T19:49:43.994Z,11.99
2023-05-01T19:52:11.434Z,11.95
2023-05-01T19:54:38.834Z,11.93
2023-05-01T19:57:06.552Z,11.91
2023-05-01T19:59:36.779Z,11.90
2023-05-01T20:02:04.715Z,11.91
2023-05-01T20:04:32.482Z,11.91
2023-05-01T20:07:00.169Z,11.91
2023-05-01T20:09:27.659Z,11.89
2023-05-01T20:11:55.292Z,11.88
2023-05-01T20:14:22.632Z,11.86
2023-05-01T20:16:52.485Z,11.84
2023-05-01T20:19:20.326Z,11.82
2023-05-01T20:21:48.698Z,11.77
2023-05-01T20:24:15.661Z,11.71
2023-05-01T20:26:43.102Z,11.67
2023-05-01T20:29:10.472Z,11.63
2023-05-01T20:31:38.133Z,11.60
2023-05-01T20:34:06.086Z,11.57
2023-05-01T20:36:34.057Z,11.56
2023-05-01T20:39:01.435Z,11.58
2023-05-01T20:41:29.375Z,11.58
2023-05-01T20:43:57.362Z,11.57
2023-05-01T20:46:25.047Z,11.56
2023-05-01T20:48:53.695Z,11.59
2023-05-01T20:51:21.172Z,11.60
2023-05-01T20:53:48.908Z,11.60
2023-05-01T20:56:16.136Z,11.57
2023-05-01T20:58:43.621Z,11.55
2023-05-01T21:01:11.382Z,11.54
2023-05-01T21:03:39.236Z,11.51
2023-05-01T21:06:06.842Z,11.48
2023-05-01T21:08:34.367Z,11.46
2023-05-01T21:11:02.024Z,11.46
2023-05-01T21:13:29.597Z,11.45
2023-05-01T21:15:56.877Z,11.44
2023-05-01T21:18:24.403Z,11.42
2023-05-01T21:20:51.751Z,11.43
2023-05-01T21:23:19.214Z,11.46
2023-05-01T21:25:46.728Z,11.50
2023-05-01T21:28:14.124Z,11.52
2023-05-01T21:30:41.783Z,11.53
2023-05-01T21:33:12.355Z,11.51
2023-05-01T21:35:41.405Z,11.48
2023-05-01T21:38:09.067Z,11.45
2023-05-01T21:40:36.845Z,11.45
2023-05-01T21:43:05.249Z,11.45
2023-05-01T21:45:34.612Z,11.45
2023-05-01T21:48:01.944Z,11.47
2023-05-01T21:50:29.437Z,11.49
2023-05-01T21:52:57.080Z,11.49
2023-05-01T21:55:25.773Z,11.48
2023-05-01T21:57:53.630Z,11.47
2023-05-01T22:00:21.397Z,11.46
2023-05-01T22:02:49.340Z,11.46
2023-05-01T22:05:18.028Z,11.44
2023-05-01T22:07:46.025Z,11.42
2023-05-01T22:10:14.211Z,11.40
2023-05-01T22:12:42.075Z,11.38
2023-05-01T22:15:10.426Z,11.35
2023-05-01T22:17:38.167Z,11.34
2023-05-01T22:20:06.066Z,11.32
2023-05-01T22:22:36.389Z,11.30
2023-05-01T22:25:04.062Z,11.29
2023-05-01T22:27:31.300Z,11.26
2023-05-01T22:29:58.300Z,11.23
2023-05-01T22:32:25.513Z,11.21
2023-05-01T22:34:53.268Z,11.17
2023-05-01T22:37:20.724Z,11.14
2023-05-01T22:39:47.999Z,11.09
2023-05-01T22:42:15.533Z,11.05
2023-05-01T22:44:42.895Z,11.02
2023-05-01T22:47:10.347Z,11.01
2023-05-01T22:49:37.702Z,10.97
2023-05-01T22:52:05.470Z,10.94
2023-05-01T22:54:32.843Z,10.91
2023-05-01T22:57:00.390Z,10.87
2023-05-01T22:59:27.426Z,10.84
2023-05-01T23:01:55.099Z,10.81
2023-05-01T23:04:22.537Z,10.79
2023-05-01T23:06:50.100Z,10.77
2023-05-01T23:09:17.862Z,10.74
2023-05-01T23:11:46.557Z,10.72
2023-05-01T23:14:16.665Z,10.69
2023-05-01T23:16:44.959Z,10.68
2023-05-01T23:19:22.224Z,10.66
2023-05-01T23:21:50.016Z,10.66
2023-05-01T23:24:18.575Z,10.65
2023-05-01T23:26:46.043Z,10.63
2023-05-01T23:29:13.798Z,10.60
2023-05-01T23:31:46.023Z,10.58
2023-05-01T23:34:17.809Z,10.56
2023-05-01T23:36:46.397Z,10.55
2023-05-01T23:39:13.864Z,10.55
2023-05-01T23:41:41.634Z,10.54
2023-05-01T23:44:09.744Z,10.53
2023-05-01T23:46:37.493Z,10.52
2023-05-01T23:49:04.731Z,10.50
2023-05-01T23:51:32.171Z,10.47
2023-05-01T23:54:00.169Z,10.46
2023-05-01T23:56:27.633Z,10.45
2023-05-01T23:58:55.051Z,10.44
